sensor_id;sensor_type;location;lat;lon;timestamp;pressure;altitude;pressure_sealevel;temperature;humidity
25498;BME280;13406;53.380;7.226;2023-07-31T00:02:02;99917.44;;;14.73;100.00
25498;BME280;13406;53.380;7.226;2023-07-31T00:04:27;99796.03;;;14.39;100.00
25498;BME280;13406;53.380;7.226;2023-07-31T00:06:53;99845.66;;;14.55;100.00
25498;BME280;13406;53.380;7.226;2023-07-31T00:09:18;99690.03;;;13.78;100.00
25498;BME280;13406;53.380;7.226;2023-07-31T00:11:45;99981.66;;;15.32;100.00
25498;BME280;13406;53.380;7.226;2023-07-31T00:14:11;99802.16;;;14.35;100.00
25498;BME280;13406;53.380;7.226;2023-07-31T00:16:36;99666.69;;;13.67;100.00
25498;BME280;13406;53.380;7.226;2023-07-31T00:19:01;99763.59;;;13.95;100.00
25498;BME280;13406;53.380;7.226;2023-07-31T00:21:27;99905.31;;;14.76;100.00
25498;BME280;13406;53.380;7.226;2023-07-31T00:23:52;99773.56;;;13.78;100.00
25498;BME280;13406;53.380;7.226;2023-07-31T00:26:18;99874.13;;;14.29;100.00
25498;BME280;13406;53.380;7.226;2023-07-31T00:28:43;99781.47;;;13.51;100.00
25498;BME280;13406;53.380;7.226;2023-07-31T00:31:09;99808.94;;;13.82;100.00
25498;BME280;13406;53.380;7.226;2023-07-31T00:33:35;99749.41;;;13.83;100.00
25498;BME280;13406;53.380;7.226;2023-07-31T00:36:00;100105.34;;;16.08;100.00
25498;BME280;13406;53.380;7.226;2023-07-31T00:38:26;99636.75;;;13.12;100.00
25498;BME280;13406;53.380;7.226;2023-07-31T00:40:51;99777.75;;;13.69;100.00
25498;BME280;13406;53.380;7.226;2023-07-31T00:43:17;99824.13;;;14.21;100.00
25498;BME280;13406;53.380;7.226;2023-07-31T00:45:42;99827.53;;;14.00;100.00
25498;BME280;13406;53.380;7.226;2023-07-31T00:48:08;99778.53;;;13.36;100.00
25498;BME280;13406;53.380;7.226;2023-07-31T00:50:34;99815.00;;;13.72;100.00
25498;BME280;13406;53.380;7.226;2023-07-31T00:53:00;99938.13;;;14.67;100.00
25498;BME280;13406;53.380;7.226;2023-07-31T00:55:25;99788.94;;;13.77;100.00
25498;BME280;13406;53.380;7.226;2023-07-31T00:57:52;99903.94;;;14.06;100.00
25498;BME280;13406;53.380;7.226;2023-07-31T01:00:18;99803.22;;;13.78;100.00
25498;BME280;13406;53.380;7.226;2023-07-31T01:02:44;99702.88;;;13.37;100.00
25498;BME280;13406;53.380;7.226;2023-07-31T01:05:09;99990.63;;;14.60;100.00
25498;BME280;13406;53.380;7.226;2023-07-31T01:07:48;100181.50;;;15.60;100.00
25498;BME280;13406;53.380;7.226;2023-07-31T01:10:26;99705.84;;;12.78;100.00
25498;BME280;13406;53.380;7.226;2023-07-31T01:12:53;99938.72;;;14.69;100.00
25498;BME280;13406;53.380;7.226;2023-07-31T01:15:21;99724.94;;;13.34;100.00
25498;BME280;13406;53.380;7.226;2023-07-31T01:17:47;99724.25;;;13.44;100.00
25498;BME280;13406;53.380;7.226;2023-07-31T01:20:17;99616.38;;;13.17;100.00
25498;BME280;13406;53.380;7.226;2023-07-31T01:28:01;99787.19;;;14.05;100.00
25498;BME280;13406;53.380;7.226;2023-07-31T01:30:32;99760.75;;;13.85;100.00
25498;BME280;13406;53.380;7.226;2023-07-31T01:33:02;99657.31;;;13.02;100.00
25498;BME280;13406;53.380;7.226;2023-07-31T01:35:33;99564.22;;;12.89;100.00
25498;BME280;13406;53.380;7.226;2023-07-31T01:37:59;99615.69;;;13.09;100.00
25498;BME280;13406;53.380;7.226;2023-07-31T01:40:24;99753.22;;;14.65;100.00
25498;BME280;13406;53.380;7.226;2023-07-31T01:42:50;100258.50;;;12.96;100.00
25498;BME280;13406;53.380;7.226;2023-07-31T01:45:15;100474.03;;;14.28;100.00
25498;BME280;13406;53.380;7.226;2023-07-31T01:47:41;100665.16;;;15.27;100.00
25498;BME280;13406;53.380;7.226;2023-07-31T01:50:06;100354.19;;;13.10;100.00
25498;BME280;13406;53.380;7.226;2023-07-31T01:52:32;100448.59;;;13.33;100.00
25498;BME280;13406;53.380;7.226;2023-07-31T01:54:57;100244.34;;;12.40;100.00
25498;BME280;13406;53.380;7.226;2023-07-31T01:57:23;100519.47;;;13.52;100.00
25498;BME280;13406;53.380;7.226;2023-07-31T01:59:48;100522.78;;;13.54;100.00
25498;BME280;13406;53.380;7.226;2023-07-31T02:02:14;100403.88;;;12.96;100.00
25498;BME280;13406;53.380;7.226;2023-07-31T02:04:39;100839.47;;;15.18;100.00
25498;BME280;13406;53.380;7.226;2023-07-31T02:07:06;100455.53;;;12.68;100.00
25498;BME280;13406;53.380;7.226;2023-07-31T02:09:31;100399.06;;;12.42;100.00
25498;BME280;13406;53.380;7.226;2023-07-31T02:11:57;100574.09;;;13.16;100.00
25498;BME280;13406;53.380;7.226;2023-07-31T02:14:22;100908.22;;;15.22;100.00
25498;BME280;13406;53.380;7.226;2023-07-31T02:16:47;100725.31;;;13.95;100.00
25498;BME280;13406;53.380;7.226;2023-07-31T02:19:13;100565.53;;;12.82;100.00
25498;BME280;13406;53.380;7.226;2023-07-31T02:21:38;100671.66;;;13.18;100.00
25498;BME280;13406;53.380;7.226;2023-07-31T02:24:04;100652.06;;;13.11;100.00
25498;BME280;13406;53.380;7.226;2023-07-31T02:26:29;100415.78;;;11.94;100.00
25498;BME280;13406;53.380;7.226;2023-07-31T02:28:55;100624.81;;;12.76;100.00
25498;BME280;13406;53.380;7.226;2023-07-31T02:31:20;100726.41;;;13.12;100.00
25498;BME280;13406;53.380;7.226;2023-07-31T02:33:46;100650.41;;;12.85;100.00
25498;BME280;13406;53.380;7.226;2023-07-31T02:36:11;100527.69;;;12.27;100.00
25498;BME280;13406;53.380;7.226;2023-07-31T02:38:37;100516.78;;;12.15;100.00
25498;BME280;13406;53.380;7.226;2023-07-31T02:41:02;100803.34;;;13.33;100.00
25498;BME280;13406;53.380;7.226;2023-07-31T02:43:27;100895.66;;;13.85;100.00
25498;BME280;13406;53.380;7.226;2023-07-31T02:45:53;100789.75;;;13.28;100.00
25498;BME280;13406;53.380;7.226;2023-07-31T02:48:19;100712.25;;;12.60;100.00
25498;BME280;13406;53.380;7.226;2023-07-31T02:50:45;100650.50;;;12.33;100.00
25498;BME280;13406;53.380;7.226;2023-07-31T02:53:10;100931.81;;;13.39;100.00
25498;BME280;13406;53.380;7.226;2023-07-31T02:55:36;101203.72;;;15.27;100.00
25498;BME280;13406;53.380;7.226;2023-07-31T02:58:01;101214.53;;;15.27;100.00
25498;BME280;13406;53.380;7.226;2023-07-31T03:00:27;101030.88;;;13.89;100.00
25498;BME280;13406;53.380;7.226;2023-07-31T03:02:53;100789.88;;;12.56;100.00
25498;BME280;13406;53.380;7.226;2023-07-31T03:05:18;100969.69;;;13.51;100.00
25498;BME280;13406;53.380;7.226;2023-07-31T03:07:43;100977.66;;;13.32;100.00
25498;BME280;13406;53.380;7.226;2023-07-31T03:10:09;101025.06;;;13.47;100.00
25498;BME280;13406;53.380;7.226;2023-07-31T03:12:50;100921.94;;;13.26;100.00
25498;BME280;13406;53.380;7.226;2023-07-31T03:15:15;100787.03;;;12.38;100.00
25498;BME280;13406;53.380;7.226;2023-07-31T03:17:41;100797.19;;;12.29;100.00
25498;BME280;13406;53.380;7.226;2023-07-31T03:20:06;100909.06;;;12.63;100.00
25498;BME280;13406;53.380;7.226;2023-07-31T03:22:33;101010.59;;;13.21;100.00
25498;BME280;13406;53.380;7.226;2023-07-31T03:25:01;101119.72;;;13.77;100.00
25498;BME280;13406;53.380;7.226;2023-07-31T03:27:26;101048.00;;;13.63;100.00
25498;BME280;13406;53.380;7.226;2023-07-31T03:29:52;101129.78;;;13.95;100.00
25498;BME280;13406;53.380;7.226;2023-07-31T03:32:17;100910.50;;;12.79;100.00
25498;BME280;13406;53.380;7.226;2023-07-31T03:34:42;101008.13;;;13.13;100.00
25498;BME280;13406;53.380;7.226;2023-07-31T03:37:08;100945.72;;;12.58;100.00
25498;BME280;13406;53.380;7.226;2023-07-31T03:39:35;101334.16;;;15.16;100.00
25498;BME280;13406;53.380;7.226;2023-07-31T03:42:00;101042.53;;;13.31;100.00
25498;BME280;13406;53.380;7.226;2023-07-31T03:44:25;100859.25;;;12.34;100.00
25498;BME280;13406;53.380;7.226;2023-07-31T03:46:51;100906.41;;;12.50;100.00
25498;BME280;13406;53.380;7.226;2023-07-31T03:49:16;101031.53;;;13.32;100.00
25498;BME280;13406;53.380;7.226;2023-07-31T03:51:42;100956.66;;;12.70;100.00
25498;BME280;13406;53.380;7.226;2023-07-31T03:54:08;101357.59;;;15.22;100.00
25498;BME280;13406;53.380;7.226;2023-07-31T03:56:33;100930.41;;;12.52;100.00
25498;BME280;13406;53.380;7.226;2023-07-31T03:58:59;100934.75;;;12.59;100.00
25498;BME280;13406;53.380;7.226;2023-07-31T04:01:26;100961.47;;;12.48;100.00
25498;BME280;13406;53.380;7.226;2023-07-31T04:03:51;101008.19;;;12.86;100.00
25498;BME280;13406;53.380;7.226;2023-07-31T04:06:17;101079.84;;;13.01;100.00
25498;BME280;13406;53.380;7.226;2023-07-31T04:08:45;101233.91;;;13.96;100.00
25498;BME280;13406;53.380;7.226;2023-07-31T04:11:11;101245.19;;;14.38;100.00
25498;BME280;13406;53.380;7.226;2023-07-31T04:13:37;101128.66;;;13.51;100.00
25498;BME280;13406;53.380;7.226;2023-07-31T04:16:03;101401.91;;;15.14;100.00
25498;BME280;13406;53.380;7.226;2023-07-31T04:18:29;101068.22;;;13.07;100.00
25498;BME280;13406;53.380;7.226;2023-07-31T04:20:56;101197.41;;;13.93;100.00
25498;BME280;13406;53.380;7.226;2023-07-31T04:23:23;101144.44;;;13.54;100.00
25498;BME280;13406;53.380;7.226;2023-07-31T04:25:49;101181.31;;;13.60;100.00
25498;BME280;13406;53.380;7.226;2023-07-31T04:28:14;101127.88;;;13.37;100.00
25498;BME280;13406;53.380;7.226;2023-07-31T04:30:40;101017.13;;;12.54;100.00
25498;BME280;13406;53.380;7.226;2023-07-31T04:33:05;100908.09;;;12.05;100.00
25498;BME280;13406;53.380;7.226;2023-07-31T04:35:31;101157.50;;;13.24;100.00
25498;BME280;13406;53.380;7.226;2023-07-31T04:37:56;101052.53;;;12.51;100.00
25498;BME280;13406;53.380;7.226;2023-07-31T04:40:22;101170.97;;;13.44;100.00
25498;BME280;13406;53.380;7.226;2023-07-31T04:42:47;101138.44;;;13.52;100.00
25498;BME280;13406;53.380;7.226;2023-07-31T04:45:13;101007.19;;;12.74;100.00
25498;BME280;13406;53.380;7.226;2023-07-31T04:47:48;101423.28;;;15.23;100.00
25498;BME280;13406;53.380;7.226;2023-07-31T04:50:14;101475.19;;;15.38;100.00
25498;BME280;13406;53.380;7.226;2023-07-31T04:52:39;101076.31;;;12.87;100.00
25498;BME280;13406;53.380;7.226;2023-07-31T04:55:05;101250.91;;;13.96;100.00
25498;BME280;13406;53.380;7.226;2023-07-31T04:57:30;100934.97;;;12.31;100.00
25498;BME280;13406;53.380;7.226;2023-07-31T04:59:56;101206.78;;;13.77;100.00
25498;BME280;13406;53.380;7.226;2023-07-31T05:02:21;101334.38;;;14.69;100.00
25498;BME280;13406;53.380;7.226;2023-07-31T05:04:47;101066.19;;;12.76;100.00
25498;BME280;13406;53.380;7.226;2023-07-31T05:07:12;101032.66;;;12.65;100.00
25498;BME280;13406;53.380;7.226;2023-07-31T05:09:38;100999.09;;;12.41;100.00
25498;BME280;13406;53.380;7.226;2023-07-31T05:12:05;101045.47;;;12.70;100.00
25498;BME280;13406;53.380;7.226;2023-07-31T05:14:31;101227.31;;;13.65;100.00
25498;BME280;13406;53.380;7.226;2023-07-31T05:16:56;101391.75;;;14.52;100.00
25498;BME280;13406;53.380;7.226;2023-07-31T05:19:22;101452.72;;;15.37;100.00
25498;BME280;13406;53.380;7.226;2023-07-31T05:21:47;101237.06;;;13.73;100.00
25498;BME280;13406;53.380;7.226;2023-07-31T05:24:13;101104.91;;;12.88;100.00
25498;BME280;13406;53.380;7.226;2023-07-31T05:26:38;100982.75;;;12.49;100.00
25498;BME280;13406;53.380;7.226;2023-07-31T05:29:04;101354.97;;;14.64;100.00
25498;BME280;13406;53.380;7.226;2023-07-31T05:31:29;101196.25;;;13.49;100.00
25498;BME280;13406;53.380;7.226;2023-07-31T05:33:57;101005.53;;;12.33;100.00
25498;BME280;13406;53.380;7.226;2023-07-31T05:36:23;100988.16;;;12.42;100.00
25498;BME280;13406;53.380;7.226;2023-07-31T05:38:48;101311.03;;;14.17;100.00
25498;BME280;13406;53.380;7.226;2023-07-31T05:41:13;101063.72;;;12.87;100.00
25498;BME280;13406;53.380;7.226;2023-07-31T05:43:39;101023.31;;;12.74;100.00
25498;BME280;13406;53.380;7.226;2023-07-31T05:46:04;101005.53;;;12.40;100.00
25498;BME280;13406;53.380;7.226;2023-07-31T05:48:32;101124.78;;;12.87;100.00
25498;BME280;13406;53.380;7.226;2023-07-31T05:50:59;101256.38;;;13.63;100.00
25498;BME280;13406;53.380;7.226;2023-07-31T05:53:25;101199.16;;;13.48;100.00
25498;BME280;13406;53.380;7.226;2023-07-31T05:55:50;101244.91;;;13.88;100.00
25498;BME280;13406;53.380;7.226;2023-07-31T05:58:15;101015.25;;;12.74;100.00
25498;BME280;13406;53.380;7.226;2023-07-31T06:00:41;101261.31;;;13.86;100.00
25498;BME280;13406;53.380;7.226;2023-07-31T06:03:06;101225.25;;;13.81;100.00
25498;BME280;13406;53.380;7.226;2023-07-31T06:05:32;101039.28;;;12.82;100.00
25498;BME280;13406;53.380;7.226;2023-07-31T06:07:57;101180.31;;;13.54;100.00
25498;BME280;13406;53.380;7.226;2023-07-31T06:10:23;101236.44;;;13.84;100.00
25498;BME280;13406;53.380;7.226;2023-07-31T06:12:48;101047.13;;;12.91;100.00
25498;BME280;13406;53.380;7.226;2023-07-31T06:15:14;101304.78;;;14.36;100.00
25498;BME280;13406;53.380;7.226;2023-07-31T06:17:40;101441.91;;;15.37;100.00
25498;BME280;13406;53.380;7.226;2023-07-31T06:20:06;101363.66;;;14.66;100.00
25498;BME280;13406;53.380;7.226;2023-07-31T06:22:32;101481.53;;;15.57;100.00
25498;BME280;13406;53.380;7.226;2023-07-31T06:24:58;101301.06;;;14.24;100.00
25498;BME280;13406;53.380;7.226;2023-07-31T06:27:24;101097.41;;;13.10;100.00
25498;BME280;13406;53.380;7.226;2023-07-31T06:29:49;101094.31;;;13.06;100.00
25498;BME280;13406;53.380;7.226;2023-07-31T06:32:15;100986.91;;;12.65;100.00
25498;BME280;13406;53.380;7.226;2023-07-31T06:34:40;101234.19;;;13.74;100.00
25498;BME280;13406;53.380;7.226;2023-07-31T06:37:06;101307.28;;;14.24;100.00
25498;BME280;13406;53.380;7.226;2023-07-31T06:39:31;101428.34;;;15.44;100.00
25498;BME280;13406;53.380;7.226;2023-07-31T06:41:57;101264.75;;;14.27;100.00
25498;BME280;13406;53.380;7.226;2023-07-31T06:44:22;101266.63;;;14.19;100.00
25498;BME280;13406;53.380;7.226;2023-07-31T06:46:48;101194.31;;;13.90;100.00
25498;BME280;13406;53.380;7.226;2023-07-31T06:49:13;100993.50;;;12.82;100.00
25498;BME280;13406;53.380;7.226;2023-07-31T06:51:40;101285.75;;;14.18;100.00
25498;BME280;13406;53.380;7.226;2023-07-31T06:54:07;101355.63;;;15.04;100.00
25498;BME280;13406;53.380;7.226;2023-07-31T06:56:33;101126.94;;;13.76;100.00
25498;BME280;13406;53.380;7.226;2023-07-31T06:58:59;101336.66;;;14.73;100.00
25498;BME280;13406;53.380;7.226;2023-07-31T07:01:24;101154.97;;;13.62;100.00
25498;BME280;13406;53.380;7.226;2023-07-31T07:03:49;101084.59;;;13.25;100.00
25498;BME280;13406;53.380;7.226;2023-07-31T07:06:19;101319.34;;;14.87;100.00
25498;BME280;13406;53.380;7.226;2023-07-31T07:08:44;101147.44;;;13.84;100.00
25498;BME280;13406;53.380;7.226;2023-07-31T07:11:10;101350.31;;;14.84;100.00
25498;BME280;13406;53.380;7.226;2023-07-31T07:13:35;101141.88;;;13.86;100.00
25498;BME280;13406;53.380;7.226;2023-07-31T07:16:01;101254.91;;;14.52;100.00
25498;BME280;13406;53.380;7.226;2023-07-31T07:18:26;101254.50;;;14.55;100.00
25498;BME280;13406;53.380;7.226;2023-07-31T07:20:53;100945.63;;;12.98;100.00
25498;BME280;13406;53.380;7.226;2023-07-31T07:23:20;101200.66;;;14.15;100.00
25498;BME280;13406;53.380;7.226;2023-07-31T07:25:46;101018.69;;;13.21;100.00
25498;BME280;13406;53.380;7.226;2023-07-31T07:28:12;101267.78;;;14.50;100.00
25498;BME280;13406;53.380;7.226;2023-07-31T07:30:37;101187.97;;;14.22;100.00
25498;BME280;13406;53.380;7.226;2023-07-31T07:33:03;101167.66;;;14.13;100.00
25498;BME280;13406;53.380;7.226;2023-07-31T07:35:29;101265.91;;;14.96;100.00
25498;BME280;13406;53.380;7.226;2023-07-31T07:37:54;101437.88;;;16.17;100.00
25498;BME280;13406;53.380;7.226;2023-07-31T07:40:20;101262.66;;;14.87;100.00
25498;BME280;13406;53.380;7.226;2023-07-31T07:42:46;101201.69;;;14.66;100.00
25498;BME280;13406;53.380;7.226;2023-07-31T07:45:12;101364.03;;;15.59;100.00
25498;BME280;13406;53.380;7.226;2023-07-31T07:47:40;101271.31;;;14.96;100.00
25498;BME280;13406;53.380;7.226;2023-07-31T07:50:06;100987.97;;;13.42;100.00
25498;BME280;13406;53.380;7.226;2023-07-31T07:52:32;100974.44;;;13.55;100.00
25498;BME280;13406;53.380;7.226;2023-07-31T07:54:57;101124.06;;;14.16;100.00
25498;BME280;13406;53.380;7.226;2023-07-31T07:57:23;101196.28;;;14.66;100.00
25498;BME280;13406;53.380;7.226;2023-07-31T07:59:48;101247.19;;;15.26;100.00
25498;BME280;13406;53.380;7.226;2023-07-31T08:02:14;101078.50;;;14.01;100.00
25498;BME280;13406;53.380;7.226;2023-07-31T08:04:39;101136.78;;;14.47;100.00
25498;BME280;13406;53.380;7.226;2023-07-31T08:07:05;101156.19;;;14.69;100.00
25498;BME280;13406;53.380;7.226;2023-07-31T08:09:30;100962.06;;;13.79;100.00
25498;BME280;13406;53.380;7.226;2023-07-31T08:11:56;101182.53;;;14.74;100.00
25498;BME280;13406;53.380;7.226;2023-07-31T08:14:27;101191.88;;;15.03;100.00
25498;BME280;13406;53.380;7.226;2023-07-31T08:16:52;101040.81;;;13.95;100.00
25498;BME280;13406;53.380;7.226;2023-07-31T08:19:18;101066.81;;;14.14;100.00
25498;BME280;13406;53.380;7.226;2023-07-31T08:21:43;101183.13;;;14.76;100.00
25498;BME280;13406;53.380;7.226;2023-07-31T08:24:08;101151.06;;;14.61;100.00
25498;BME280;13406;53.380;7.226;2023-07-31T08:26:34;100975.00;;;13.64;100.00
25498;BME280;13406;53.380;7.226;2023-07-31T08:28:59;101063.38;;;14.00;100.00
25498;BME280;13406;53.380;7.226;2023-07-31T08:31:25;100986.22;;;13.61;100.00
25498;BME280;13406;53.380;7.226;2023-07-31T08:33:52;101059.56;;;13.70;100.00
25498;BME280;13406;53.380;7.226;2023-07-31T08:36:17;101178.47;;;14.58;100.00
25498;BME280;13406;53.380;7.226;2023-07-31T08:38:43;101219.84;;;14.84;100.00
25498;BME280;13406;53.380;7.226;2023-07-31T08:41:08;101219.56;;;14.67;100.00
25498;BME280;13406;53.380;7.226;2023-07-31T08:43:34;101350.53;;;15.85;100.00
25498;BME280;13406;53.380;7.226;2023-07-31T08:46:02;101214.00;;;14.55;100.00
25498;BME280;13406;53.380;7.226;2023-07-31T08:48:28;101301.19;;;15.32;100.00
25498;BME280;13406;53.380;7.226;2023-07-31T08:50:54;100982.50;;;13.55;100.00
25498;BME280;13406;53.380;7.226;2023-07-31T08:53:20;101328.41;;;15.37;100.00
25498;BME280;13406;53.380;7.226;2023-07-31T08:55:46;101094.19;;;14.18;100.00
25498;BME280;13406;53.380;7.226;2023-07-31T08:58:13;101049.81;;;14.14;100.00
25498;BME280;13406;53.380;7.226;2023-07-31T09:00:40;101344.09;;;15.54;100.00
25498;BME280;13406;53.380;7.226;2023-07-31T09:03:13;101454.19;;;16.54;100.00
25498;BME280;13406;53.380;7.226;2023-07-31T09:05:43;101195.97;;;14.81;100.00
25498;BME280;13406;53.380;7.226;2023-07-31T09:08:10;101278.66;;;15.45;100.00
25498;BME280;13406;53.380;7.226;2023-07-31T09:10:43;101476.66;;;16.61;100.00
25498;BME280;13406;53.380;7.226;2023-07-31T09:13:09;101206.84;;;15.31;100.00
25498;BME280;13406;53.380;7.226;2023-07-31T09:15:36;101122.25;;;14.80;100.00
25498;BME280;13406;53.380;7.226;2023-07-31T09:18:03;101452.38;;;16.91;100.00
25498;BME280;13406;53.380;7.226;2023-07-31T09:20:30;101449.31;;;16.87;100.00
25498;BME280;13406;53.380;7.226;2023-07-31T09:23:05;100994.88;;;14.33;100.00
25498;BME280;13406;53.380;7.226;2023-07-31T09:25:31;101147.91;;;14.89;100.00
25498;BME280;13406;53.380;7.226;2023-07-31T09:27:59;100934.69;;;14.08;100.00
25498;BME280;13406;53.380;7.226;2023-07-31T09:30:25;101236.53;;;15.56;100.00
25498;BME280;13406;53.380;7.226;2023-07-31T09:33:00;101011.16;;;14.52;100.00
25498;BME280;13406;53.380;7.226;2023-07-31T09:35:31;101040.94;;;14.63;100.00
25498;BME280;13406;53.380;7.226;2023-07-31T09:38:00;101416.53;;;16.89;100.00
25498;BME280;13406;53.380;7.226;2023-07-31T09:40:31;100938.19;;;14.15;100.00
25498;BME280;13406;53.380;7.226;2023-07-31T09:42:59;101430.16;;;17.01;100.00
25498;BME280;13406;53.380;7.226;2023-07-31T09:45:27;101122.47;;;15.04;100.00
25498;BME280;13406;53.380;7.226;2023-07-31T09:47:53;101129.41;;;15.18;100.00
25498;BME280;13406;53.380;7.226;2023-07-31T09:50:21;101144.53;;;15.44;100.00
25498;BME280;13406;53.380;7.226;2023-07-31T09:52:46;101073.59;;;14.87;100.00
25498;BME280;13406;53.380;7.226;2023-07-31T09:55:12;101095.06;;;15.00;100.00
25498;BME280;13406;53.380;7.226;2023-07-31T09:57:42;101196.38;;;15.59;100.00
25498;BME280;13406;53.380;7.226;2023-07-31T10:00:12;101137.56;;;15.36;100.00
25498;BME280;13406;53.380;7.226;2023-07-31T10:02:38;101275.28;;;16.18;100.00
25498;BME280;13406;53.380;7.226;2023-07-31T10:05:05;100953.25;;;14.22;100.00
25498;BME280;13406;53.380;7.226;2023-07-31T10:07:36;101219.09;;;16.14;100.00
25498;BME280;13406;53.380;7.226;2023-07-31T10:10:04;100968.22;;;14.68;100.00
25498;BME280;13406;53.380;7.226;2023-07-31T10:12:31;101156.84;;;15.58;100.00
25498;BME280;13406;53.380;7.226;2023-07-31T10:14:59;101164.16;;;15.58;100.00
25498;BME280;13406;53.380;7.226;2023-07-31T10:17:26;101204.91;;;16.18;100.00
25498;BME280;13406;53.380;7.226;2023-07-31T10:19:52;101177.16;;;15.68;100.00
25498;BME280;13406;53.380;7.226;2023-07-31T10:22:19;101374.28;;;17.18;100.00
25498;BME280;13406;53.380;7.226;2023-07-31T10:24:46;101103.81;;;15.21;100.00
25498;BME280;13406;53.380;7.226;2023-07-31T10:27:12;101087.66;;;14.96;100.00
25498;BME280;13406;53.380;7.226;2023-07-31T10:29:38;100931.94;;;14.39;100.00
25498;BME280;13406;53.380;7.226;2023-07-31T10:32:09;101379.13;;;17.16;100.00
25498;BME280;13406;53.380;7.226;2023-07-31T10:34:57;101074.97;;;14.96;100.00
25498;BME280;13406;53.380;7.226;2023-07-31T10:37:35;101210.25;;;16.07;100.00
25498;BME280;13406;53.380;7.226;2023-07-31T10:40:18;101319.50;;;16.49;100.00
25498;BME280;13406;53.380;7.226;2023-07-31T10:42:56;100937.19;;;14.59;100.00
25498;BME280;13406;53.380;7.226;2023-07-31T10:50:28;101042.09;;;15.18;100.00
25498;BME280;13406;53.380;7.226;2023-07-31T10:52:56;101032.31;;;14.80;100.00
25498;BME280;13406;53.380;7.226;2023-07-31T10:55:32;101004.81;;;15.08;100.00
25498;BME280;13406;53.380;7.226;2023-07-31T10:58:06;101159.34;;;15.60;100.00
25498;BME280;13406;53.380;7.226;2023-07-31T11:00:32;101226.22;;;16.45;100.00
25498;BME280;13406;53.380;7.226;2023-07-31T11:03:00;101216.22;;;16.45;100.00
25498;BME280;13406;53.380;7.226;2023-07-31T11:10:43;100999.44;;;14.64;100.00
25498;BME280;13406;53.380;7.226;2023-07-31T11:13:09;101121.34;;;15.55;100.00
25498;BME280;13406;53.380;7.226;2023-07-31T11:15:35;101033.75;;;15.01;100.00
25498;BME280;13406;53.380;7.226;2023-07-31T11:18:01;101111.63;;;15.29;100.00
25498;BME280;13406;53.380;7.226;2023-07-31T11:20:32;101209.13;;;15.96;100.00
25498;BME280;13406;53.380;7.226;2023-07-31T11:22:59;101044.66;;;15.12;100.00
25498;BME280;13406;53.380;7.226;2023-07-31T11:25:25;100995.69;;;14.84;100.00
25498;BME280;13406;53.380;7.226;2023-07-31T11:27:51;101106.19;;;15.54;100.00
25498;BME280;13406;53.380;7.226;2023-07-31T11:30:19;100966.00;;;14.84;100.00
25498;BME280;13406;53.380;7.226;2023-07-31T11:32:45;101033.41;;;15.15;100.00
25498;BME280;13406;53.380;7.226;2023-07-31T11:35:14;101086.84;;;15.32;100.00
25498;BME280;13406;53.380;7.226;2023-07-31T11:37:43;101107.38;;;15.58;100.00
25498;BME280;13406;53.380;7.226;2023-07-31T11:40:10;101117.97;;;15.96;100.00
25498;BME280;13406;53.380;7.226;2023-07-31T11:42:36;100967.16;;;15.13;100.00
25498;BME280;13406;53.380;7.226;2023-07-31T11:45:04;101000.75;;;15.17;100.00
25498;BME280;13406;53.380;7.226;2023-07-31T11:47:32;101112.06;;;16.18;100.00
25498;BME280;13406;53.380;7.226;2023-07-31T11:50:00;101419.59;;;18.48;100.00
25498;BME280;13406;53.380;7.226;2023-07-31T11:52:28;101436.72;;;18.49;100.00
25498;BME280;13406;53.380;7.226;2023-07-31T11:54:55;100958.63;;;15.76;100.00
25498;BME280;13406;53.380;7.226;2023-07-31T11:57:21;101009.78;;;16.08;100.00
25498;BME280;13406;53.380;7.226;2023-07-31T11:59:48;101095.63;;;16.31;100.00
25498;BME280;13406;53.380;7.226;2023-07-31T12:02:14;101351.66;;;17.66;100.00
25498;BME280;13406;53.380;7.226;2023-07-31T12:04:40;101117.19;;;16.08;100.00
25498;BME280;13406;53.380;7.226;2023-07-31T12:07:06;100918.47;;;15.31;100.00
25498;BME280;13406;53.380;7.226;2023-07-31T12:09:31;101351.38;;;17.86;100.00
25498;BME280;13406;53.380;7.226;2023-07-31T12:11:56;101174.13;;;16.91;100.00
25498;BME280;13406;53.380;7.226;2023-07-31T12:14:24;101148.19;;;16.54;100.00
25498;BME280;13406;53.380;7.226;2023-07-31T12:16:59;100912.06;;;15.44;100.00
25498;BME280;13406;53.380;7.226;2023-07-31T12:19:25;100898.75;;;15.31;100.00
25498;BME280;13406;53.380;7.226;2023-07-31T12:21:55;101235.13;;;17.24;100.00
25498;BME280;13406;53.380;7.226;2023-07-31T12:24:21;101211.78;;;17.35;100.00
25498;BME280;13406;53.380;7.226;2023-07-31T12:26:48;101046.59;;;15.97;100.00
25498;BME280;13406;53.380;7.226;2023-07-31T12:29:13;101060.06;;;15.86;100.00
25498;BME280;13406;53.380;7.226;2023-07-31T12:31:41;101383.00;;;18.16;100.00
25498;BME280;13406;53.380;7.226;2023-07-31T12:34:17;101368.13;;;18.18;100.00
25498;BME280;13406;53.380;7.226;2023-07-31T12:36:43;101079.53;;;16.36;100.00
25498;BME280;13406;53.380;7.226;2023-07-31T12:39:09;100933.13;;;15.24;100.00
25498;BME280;13406;53.380;7.226;2023-07-31T12:41:35;101212.91;;;17.04;100.00
25498;BME280;13406;53.380;7.226;2023-07-31T12:44:01;101296.09;;;17.57;100.00
25498;BME280;13406;53.380;7.226;2023-07-31T12:46:26;100979.88;;;15.91;100.00
25498;BME280;13406;53.380;7.226;2023-07-31T12:48:51;101177.66;;;17.04;100.00
25498;BME280;13406;53.380;7.226;2023-07-31T12:51:17;101331.28;;;18.22;100.00
25498;BME280;13406;53.380;7.226;2023-07-31T12:53:42;101046.22;;;16.36;100.00